Time;durP1;ratioP1;P1;durP2;ratioP2;P2;SDS_P1;SDS_P2;PMS_P1;PMS_P2;Temp;Humidity;BMP_temperature;BMP_pressure;BME280_temperature;BME280_humidity;BME280_pressure;Samples;Min_cycle;Max_cycle;Signal;HPM_P1;HPM_P2
2022/08/11 00:01:25;;;;;;;26.00;16.40;;;12.60;99.90;;;;;;5033557;28;20198;-83
2022/08/11 00:03:58;;;;;;;21.80;9.82;;;12.70;99.90;;;;;;5034222;28;20256;-76
2022/08/11 00:06:31;;;;;;;20.13;10.38;;;12.80;99.90;;;;;;5033063;28;20202;-83
2022/08/11 00:09:03;;;;;;;23.02;12.35;;;12.80;99.90;;;;;;5040891;28;20706;-88
2022/08/11 00:11:42;;;;;;;14.73;7.60;;;12.90;99.90;;;;;;5053445;28;20186;-81
2022/08/11 00:14:19;;;;;;;21.83;10.70;;;12.90;99.90;;;;;;5043317;28;20198;-83
2022/08/11 00:16:59;;;;;;;13.40;7.50;;;12.90;99.90;;;;;;5053998;28;20193;-72
2022/08/11 00:19:31;;;;;;;10.93;5.57;;;13.00;99.90;;;;;;5020556;28;20205;-77
2022/08/11 00:22:02;;;;;;;10.40;6.70;;;13.00;99.90;;;;;;5032034;28;20197;-80
2022/08/11 00:24:37;;;;;;;8.30;5.22;;;13.10;99.90;;;;;;5037672;28;20685;-76
2022/08/11 00:27:08;;;;;;;10.80;5.07;;;13.10;99.90;;;;;;5023561;28;20243;-75
2022/08/11 00:29:39;;;;;;;10.02;4.93;;;13.20;99.90;;;;;;5033872;28;20575;-71
2022/08/11 00:32:19;;;;;;;7.63;4.43;;;13.30;99.90;;;;;;5032867;28;20194;-81
2022/08/11 00:34:50;;;;;;;10.27;5.43;;;13.40;99.90;;;;;;5031658;28;20190;-81
2022/08/11 00:37:23;;;;;;;8.50;5.40;;;13.40;99.90;;;;;;5033108;28;20226;-74
2022/08/11 00:39:58;;;;;;;11.27;6.28;;;13.50;99.90;;;;;;5031437;28;20238;-73
2022/08/11 00:42:42;;;;;;;14.77;6.20;;;13.50;99.90;;;;;;5033213;28;20198;-80
2022/08/11 00:45:16;;;;;;;18.45;9.70;;;13.60;99.90;;;;;;5032340;28;20225;-77
2022/08/11 00:47:58;;;;;;;12.07;6.32;;;13.60;99.90;;;;;;5027207;28;20221;-74
2022/08/11 00:50:39;;;;;;;10.13;6.07;;;13.70;99.90;;;;;;5043225;28;20206;-73
2022/08/11 00:53:29;;;;;;;12.90;5.93;;;13.70;99.90;;;;;;5053330;28;20205;-72
2022/08/11 00:56:40;;;;;;;11.90;5.30;;;13.70;99.90;;;;;;5030414;28;20201;-80
2022/08/11 01:00:00;;;;;;;9.05;5.05;;;13.80;99.90;;;;;;5015838;28;20217;-75
2022/08/11 01:02:56;;;;;;;10.68;4.97;;;13.80;99.90;;;;;;4963608;28;20223;-72
2022/08/11 01:05:57;;;;;;;7.82;4.38;;;13.80;99.90;;;;;;5029502;28;20665;-75
2022/08/11 01:09:05;;;;;;;9.10;4.40;;;13.80;99.90;;;;;;5037905;28;20229;-73
2022/08/11 01:12:08;;;;;;;6.90;3.53;;;13.90;99.90;;;;;;5028561;28;20206;-73
2022/08/11 01:15:15;;;;;;;8.25;3.72;;;13.90;99.90;;;;;;5042917;28;20232;-72
2022/08/11 01:18:12;;;;;;;7.07;3.63;;;14.00;99.90;;;;;;5035339;28;20206;-72
2022/08/11 01:21:19;;;;;;;13.25;4.20;;;14.00;99.90;;;;;;5006785;28;20234;-75
2022/08/11 01:24:26;;;;;;;10.82;4.32;;;14.00;99.90;;;;;;5031630;28;20795;-74
2022/08/11 01:27:23;;;;;;;8.88;3.83;;;14.00;99.90;;;;;;5019943;28;20235;-75
2022/08/11 01:30:32;;;;;;;6.72;4.10;;;14.00;99.90;;;;;;5034990;28;20202;-80
2022/08/11 01:33:39;;;;;;;7.65;3.80;;;14.00;99.90;;;;;;5026706;28;20194;-78
2022/08/11 01:36:50;;;;;;;8.43;3.88;;;14.00;99.90;;;;;;5028412;28;20252;-80
2022/08/11 01:39:57;;;;;;;9.05;3.80;;;14.10;99.90;;;;;;5031497;28;20225;-81
2022/08/11 01:45:57;;;;;;;7.03;3.13;;;14.20;99.90;;;;;;5032616;28;20228;-79
2022/08/11 01:48:41;;;;;;;5.32;2.90;;;14.40;99.90;;;;;;5039848;28;20708;-81
2022/08/11 01:51:24;;;;;;;5.15;2.45;;;14.50;99.90;;;;;;5025584;28;20284;-85
2022/08/11 01:54:03;;;;;;;6.85;2.03;;;14.70;99.90;;;;;;5030617;28;20236;-71
2022/08/11 01:56:47;;;;;;;4.78;1.80;;;14.90;99.90;;;;;;5035277;28;20217;-84
2022/08/11 01:59:24;;;;;;;5.25;1.70;;;15.00;99.90;;;;;;5020687;28;20199;-83
2022/08/11 02:02:19;;;;;;;4.93;1.75;;;15.10;99.90;;;;;;5028533;28;20289;-84
2022/08/11 02:04:58;;;;;;;4.65;1.30;;;15.20;99.90;;;;;;5023834;28;20307;-81
2022/08/11 02:07:37;;;;;;;3.20;1.10;;;15.30;99.90;;;;;;5031981;28;20233;-85
2022/08/11 02:13:17;;;;;;;3.10;1.10;;;15.30;99.90;;;;;;5016952;28;20232;-78
2022/08/11 02:15:51;;;;;;;1.70;0.60;;;15.40;99.90;;;;;;5015276;28;20222;-81
2022/08/11 02:23:38;;;;;;;2.13;0.85;;;15.40;99.90;;;;;;5018237;28;20202;-85
2022/08/11 02:24:13;;;;;;;0.93;0.63;;;15.80;99.90;;;;;;5036368;28;20216;-85
2022/08/11 02:26:48;;;;;;;3.00;0.80;;;15.90;99.90;;;;;;5036183;28;20194;-83
2022/08/11 02:29:25;;;;;;;3.08;0.70;;;15.90;99.90;;;;;;5036335;28;20221;-86
2022/08/11 02:35:03;;;;;;;2.15;1.02;;;16.00;99.90;;;;;;5035587;28;20236;-84
2022/08/11 02:37:46;;;;;;;1.38;0.60;;;16.00;99.90;;;;;;5031361;28;20225;-80
2022/08/11 02:40:26;;;;;;;3.05;0.60;;;16.00;99.90;;;;;;5023911;28;20237;-83
2022/08/11 02:43:10;;;;;;;4.18;0.60;;;16.00;99.90;;;;;;5016842;28;20202;-81
2022/08/11 02:45:55;;;;;;;1.88;0.80;;;16.00;99.90;;;;;;5039134;28;20226;-86
2022/08/11 02:51:41;;;;;;;2.50;0.63;;;16.00;99.90;;;;;;5035911;28;20188;-83
2022/08/11 02:54:22;;;;;;;2.53;0.50;;;16.00;99.90;;;;;;5035666;28;20194;-84
2022/08/11 02:57:02;;;;;;;1.05;0.50;;;16.10;99.90;;;;;;5020635;28;20191;-83
2022/08/11 02:59:54;;;;;;;1.88;0.60;;;16.20;99.90;;;;;;5015754;28;20194;-83
2022/08/11 03:02:40;;;;;;;2.03;0.45;;;16.40;99.90;;;;;;5015749;28;20198;-75
2022/08/11 03:05:35;;;;;;;2.22;0.50;;;16.50;99.90;;;;;;5015882;28;20277;-78
2022/08/11 03:08:32;;;;;;;1.88;0.70;;;16.50;99.90;;;;;;5015648;28;20250;-84
2022/08/11 03:17:21;;;;;;;4.00;0.63;;;16.50;99.90;;;;;;5015393;28;20194;-81
2022/08/11 03:20:03;;;;;;;2.80;0.50;;;16.50;99.90;;;;;;5015527;28;20253;-76
2022/08/11 03:22:39;;;;;;;2.03;0.50;;;16.50;99.90;;;;;;5014617;28;20202;-79
2022/08/11 03:25:16;;;;;;;1.25;0.52;;;16.60;99.90;;;;;;5015520;28;20260;-81
2022/08/11 03:27:55;;;;;;;0.82;0.35;;;16.60;99.90;;;;;;5015329;28;20646;-81
2022/08/11 03:30:34;;;;;;;1.65;0.40;;;16.60;99.90;;;;;;5015387;28;20202;-81
2022/08/11 03:36:38;;;;;;;1.50;0.55;;;16.70;99.90;;;;;;5035198;28;20308;-82
2022/08/11 03:39:18;;;;;;;1.10;0.32;;;16.70;99.90;;;;;;5033723;28;20697;-83
2022/08/11 03:41:57;;;;;;;1.70;0.50;;;16.80;99.90;;;;;;5034782;28;20524;-82
2022/08/11 03:44:45;;;;;;;3.03;0.60;;;16.80;99.90;;;;;;5032237;28;20214;-83
2022/08/11 03:47:30;;;;;;;1.88;0.50;;;16.80;99.90;;;;;;5034506;28;20191;-82
2022/08/11 03:50:12;;;;;;;1.52;0.50;;;16.80;99.90;;;;;;5034716;28;20222;-83
2022/08/11 03:52:58;;;;;;;0.40;0.35;;;16.80;99.90;;;;;;5034777;28;20198;-83
2022/08/11 03:55:42;;;;;;;1.20;0.47;;;16.80;99.90;;;;;;5034563;28;20194;-83
2022/08/11 03:58:59;;;;;;;1.33;0.50;;;16.80;99.90;;;;;;5034409;28;20190;-83
2022/08/11 04:02:05;;;;;;;1.20;0.60;;;16.80;99.90;;;;;;5034469;28;20194;-82
2022/08/11 04:05:08;;;;;;;0.90;0.57;;;16.80;99.90;;;;;;5031744;28;20201;-84
2022/08/11 04:08:22;;;;;;;2.90;0.80;;;16.80;99.90;;;;;;5034364;28;20190;-83
2022/08/11 04:11:21;;;;;;;3.03;0.60;;;16.80;99.90;;;;;;5014548;28;20199;-83
2022/08/11 04:17:52;;;;;;;1.20;0.50;;;16.70;99.90;;;;;;5007513;28;20202;-83
2022/08/11 04:20:53;;;;;;;2.78;0.70;;;16.70;99.90;;;;;;5015795;28;20249;-83
2022/08/11 04:24:03;;;;;;;2.90;1.33;;;16.70;99.90;;;;;;5034111;28;20557;-82
2022/08/11 04:27:03;;;;;;;1.70;0.70;;;16.70;99.90;;;;;;5034034;28;20190;-83
2022/08/11 04:29:59;;;;;;;0.85;0.47;;;16.60;99.90;;;;;;5033385;28;20218;-82
2022/08/11 04:32:58;;;;;;;1.33;0.80;;;16.60;99.90;;;;;;5034103;28;20190;-82
2022/08/11 04:35:43;;;;;;;1.13;0.60;;;16.50;99.90;;;;;;5033760;28;20546;-79
2022/08/11 04:38:57;;;;;;;0.95;0.60;;;16.50;99.90;;;;;;5033067;28;20264;-82
2022/08/11 04:45:29;;;;;;;0.70;0.60;;;16.40;99.90;;;;;;5030951;28;20196;-81
2022/08/11 05:03:55;;;;;;;0.75;0.60;;;16.20;99.90;;;;;;5021862;28;20198;-81
2022/08/11 05:06:59;;;;;;;0.90;0.60;;;16.10;99.90;;;;;;5027930;28;20199;-78
2022/08/11 05:09:46;;;;;;;1.35;0.60;;;16.10;99.90;;;;;;5032931;28;20209;-80
2022/08/11 05:12:37;;;;;;;1.02;0.68;;;16.10;99.90;;;;;;5032418;28;20187;-73
2022/08/11 05:35:32;;;;;;;2.72;0.82;;;16.10;99.90;;;;;;5032685;28;20198;-83
2022/08/11 05:57:59;;;;;;;1.88;0.80;;;15.80;99.90;;;;;;5031882;28;20253;-81
2022/08/11 06:00:30;;;;;;;1.95;0.77;;;15.80;99.90;;;;;;5029363;28;20190;-79
2022/08/11 06:03:06;;;;;;;2.53;0.98;;;15.80;99.90;;;;;;5032433;28;20206;-78
2022/08/11 06:05:40;;;;;;;1.30;0.80;;;15.80;99.90;;;;;;5031968;28;20220;-81
2022/08/11 06:08:13;;;;;;;4.40;0.90;;;15.80;99.90;;;;;;5031775;28;20189;-79
2022/08/11 06:10:46;;;;;;;2.97;0.90;;;15.80;99.90;;;;;;5031826;28;20225;-81
2022/08/11 06:13:21;;;;;;;2.20;1.13;;;15.80;99.90;;;;;;5018204;28;20190;-73
2022/08/11 06:15:54;;;;;;;2.05;0.80;;;15.80;99.90;;;;;;5029547;28;20256;-82
2022/08/11 06:18:26;;;;;;;1.33;0.90;;;15.80;99.90;;;;;;5031895;28;20626;-82
2022/08/11 06:21:00;;;;;;;2.45;0.80;;;15.70;99.90;;;;;;5021760;28;20200;-81
2022/08/11 06:23:34;;;;;;;3.10;0.80;;;15.70;99.90;;;;;;5029337;28;20187;-82
2022/08/11 06:26:11;;;;;;;2.42;0.93;;;15.70;99.90;;;;;;5028345;28;20640;-80
2022/08/11 06:28:49;;;;;;;1.35;0.70;;;15.70;99.90;;;;;;5031452;28;20194;-80
2022/08/11 06:31:22;;;;;;;1.42;0.82;;;15.70;99.90;;;;;;5032006;28;20191;-76
2022/08/11 06:34:00;;;;;;;2.20;0.77;;;15.70;99.90;;;;;;5021444;28;20189;-81
2022/08/11 06:36:37;;;;;;;3.10;0.73;;;15.60;99.90;;;;;;5031762;28;20197;-82
2022/08/11 06:39:19;;;;;;;3.08;1.00;;;15.60;99.90;;;;;;5024358;28;20245;-78
2022/08/11 06:41:53;;;;;;;2.78;1.17;;;15.50;99.90;;;;;;5024334;28;20195;-76
2022/08/11 06:44:31;;;;;;;2.50;1.10;;;15.50;99.90;;;;;;5012378;28;20191;-81
2022/08/11 06:47:10;;;;;;;3.50;1.08;;;15.50;99.90;;;;;;5020290;28;20198;-82
2022/08/11 06:52:39;;;;;;;2.72;1.13;;;15.40;99.90;;;;;;5023549;28;20201;-78
2022/08/11 06:55:14;;;;;;;1.40;0.90;;;15.30;99.90;;;;;;5022527;28;20270;-82
2022/08/11 07:00:36;;;;;;;3.17;0.93;;;15.20;99.90;;;;;;5027107;28;20668;-81
2022/08/11 07:03:12;;;;;;;2.03;1.10;;;15.20;99.90;;;;;;5021433;28;20195;-81
2022/08/11 07:05:47;;;;;;;1.65;1.00;;;15.20;99.90;;;;;;5022138;28;20195;-82
2022/08/11 07:29:21;;;;;;;4.75;1.50;;;15.00;99.90;;;;;;5031169;28;20241;-76
2022/08/11 07:31:54;;;;;;;2.60;1.30;;;14.90;99.90;;;;;;5031348;28;20198;-79
2022/08/11 07:34:29;;;;;;;1.75;1.20;;;15.00;99.90;;;;;;5015784;28;20194;-73
2022/08/11 07:37:02;;;;;;;1.30;1.10;;;14.90;99.90;;;;;;5027037;28;20213;-78
2022/08/11 07:39:35;;;;;;;2.10;1.30;;;15.00;99.90;;;;;;5028183;28;20225;-84
2022/08/11 07:42:12;;;;;;;2.35;1.27;;;14.90;99.90;;;;;;5024413;28;20309;-85
2022/08/11 07:53:04;;;;;;;2.33;1.50;;;14.80;99.90;;;;;;5022073;28;20558;-76
2022/08/11 07:55:37;;;;;;;4.03;1.90;;;14.80;99.90;;;;;;5029503;28;20198;-81
2022/08/11 08:17:56;;;;;;;5.93;1.73;;;14.80;99.90;;;;;;5033217;28;20216;-71
2022/08/11 08:20:29;;;;;;;4.70;1.83;;;14.80;99.90;;;;;;5034048;28;20194;-72
2022/08/11 08:23:03;;;;;;;3.42;1.85;;;14.70;99.90;;;;;;5038322;28;20202;-71
2022/08/11 08:25:37;;;;;;;2.60;1.60;;;14.80;99.90;;;;;;5039023;28;20276;-71
2022/08/11 08:28:13;;;;;;;2.92;1.65;;;14.80;99.90;;;;;;5042345;28;20190;-72
2022/08/11 08:30:49;;;;;;;2.25;1.70;;;14.70;99.90;;;;;;5045744;28;20221;-72
2022/08/11 08:33:24;;;;;;;3.50;1.88;;;14.80;99.90;;;;;;5027152;28;20190;-76
2022/08/11 08:36:10;;;;;;;3.58;2.00;;;14.80;99.90;;;;;;5021945;28;20343;-73
2022/08/11 08:38:42;;;;;;;2.78;1.70;;;14.80;99.90;;;;;;5031858;28;20774;-79
2022/08/11 08:41:14;;;;;;;3.53;1.95;;;14.80;99.90;;;;;;5029657;28;20211;-78
2022/08/11 08:43:50;;;;;;;5.63;2.40;;;14.80;99.90;;;;;;5029788;28;20208;-76
2022/08/11 08:46:28;;;;;;;8.40;4.55;;;14.80;99.90;;;;;;5028191;28;20657;-78
2022/08/11 08:49:04;;;;;;;19.98;13.40;;;14.80;99.90;;;;;;5039029;28;20201;-80
2022/08/11 08:51:38;;;;;;;2.63;2.00;;;14.80;99.90;;;;;;5035089;28;20201;-73
2022/08/11 08:54:12;;;;;;;4.95;2.60;;;14.80;99.90;;;;;;5032103;28;20194;-77
2022/08/11 08:56:45;;;;;;;5.55;3.10;;;14.80;99.90;;;;;;5026470;28;20202;-75
2022/08/11 08:59:17;;;;;;;5.95;4.47;;;14.80;99.90;;;;;;5032024;28;20289;-76
2022/08/11 09:01:56;;;;;;;3.78;2.08;;;14.80;99.90;;;;;;5040535;28;20193;-78
2022/08/11 09:04:28;;;;;;;3.67;2.42;;;14.80;99.90;;;;;;5030651;28;20563;-79
2022/08/11 09:07:02;;;;;;;3.72;2.25;;;14.80;99.90;;;;;;5032813;28;20198;-80
2022/08/11 09:09:33;;;;;;;3.15;1.80;;;14.70;99.90;;;;;;5030205;28;20220;-78
2022/08/11 09:12:06;;;;;;;5.57;2.55;;;14.70;99.90;;;;;;5039787;28;20657;-80
2022/08/11 09:17:28;;;;;;;4.72;1.90;;;14.70;99.90;;;;;;5041430;28;20197;-80
2022/08/11 09:20:02;;;;;;;4.22;1.92;;;14.70;99.90;;;;;;5032348;28;20207;-81
2022/08/11 09:28:14;;;;;;;4.30;1.80;;;14.60;99.90;;;;;;5029650;28;20256;-79
2022/08/11 09:30:47;;;;;;;2.00;1.60;;;14.50;99.90;;;;;;5043765;28;20223;-81
2022/08/11 09:33:20;;;;;;;3.78;1.80;;;14.50;99.90;;;;;;5044516;28;20239;-78
2022/08/11 09:35:52;;;;;;;1.98;1.40;;;14.40;99.90;;;;;;5043013;28;20643;-80
2022/08/11 09:41:16;;;;;;;2.60;1.60;;;14.40;99.90;;;;;;5030612;28;20217;-80
2022/08/11 09:46:36;;;;;;;3.28;1.95;;;14.30;99.90;;;;;;5029407;28;20201;-81
2022/08/11 09:49:09;;;;;;;3.13;1.92;;;14.30;99.90;;;;;;5029945;28;20198;-81
2022/08/11 09:51:40;;;;;;;2.75;1.63;;;14.30;99.90;;;;;;5036147;28;20223;-80
2022/08/11 09:54:11;;;;;;;4.55;1.58;;;14.30;99.90;;;;;;5031584;28;20664;-81
2022/08/11 09:59:29;;;;;;;3.22;1.98;;;14.30;99.90;;;;;;5041344;28;20279;-81
2022/08/11 10:02:03;;;;;;;3.13;1.75;;;14.20;99.90;;;;;;5031365;28;20193;-80
2022/08/11 10:04:40;;;;;;;3.58;2.08;;;14.30;99.90;;;;;;5014279;28;20195;-81
2022/08/11 10:07:13;;;;;;;3.10;1.70;;;14.20;99.90;;;;;;5043060;28;20197;-80
2022/08/11 10:09:47;;;;;;;4.95;1.75;;;14.30;99.90;;;;;;5028615;28;20650;-81
2022/08/11 10:12:23;;;;;;;3.72;1.80;;;14.30;99.90;;;;;;5030980;28;20300;-81
2022/08/11 10:20:35;;;;;;;4.20;1.98;;;14.30;99.90;;;;;;5035574;28;20208;-78
2022/08/11 10:28:43;;;;;;;5.72;1.95;;;14.30;99.90;;;;;;5046059;28;20209;-79
2022/08/11 10:34:02;;;;;;;2.45;1.77;;;14.30;99.90;;;;;;5027672;28;20213;-77
2022/08/11 10:36:41;;;;;;;3.92;1.85;;;14.30;99.90;;;;;;5034679;28;20206;-76
2022/08/11 10:39:15;;;;;;;4.68;1.80;;;14.30;99.90;;;;;;5037713;28;20229;-76
2022/08/11 10:44:39;;;;;;;3.45;1.90;;;14.30;99.90;;;;;;5036030;28;20198;-71
2022/08/11 11:01:06;;;;;;;3.25;1.90;;;14.20;99.90;;;;;;5035289;28;20197;-70
2022/08/11 11:03:37;;;;;;;3.30;1.70;;;14.20;99.90;;;;;;5033937;28;20208;-70
2022/08/11 11:06:18;;;;;;;6.68;1.88;;;14.30;99.90;;;;;;5034604;28;20194;-71
2022/08/11 11:08:54;;;;;;;3.65;1.83;;;14.30;99.90;;;;;;5030740;28;20281;-72
2022/08/11 11:17:54;;;;;;;4.20;1.65;;;14.30;99.90;;;;;;5034828;28;20213;-71
2022/08/11 11:20:01;;;;;;;6.05;1.90;;;14.30;99.90;;;;;;5041672;28;20245;-74
2022/08/11 11:22:39;;;;;;;2.25;1.80;;;14.20;99.90;;;;;;5028197;28;20201;-71
2022/08/11 11:25:24;;;;;;;4.10;1.80;;;14.20;99.90;;;;;;5043669;28;20208;-73
2022/08/11 11:28:28;;;;;;;4.45;1.65;;;14.20;99.90;;;;;;5042439;28;20198;-72
2022/08/11 11:31:21;;;;;;;2.70;1.80;;;14.10;99.90;;;;;;5032487;28;20238;-71
2022/08/11 11:34:11;;;;;;;2.30;1.70;;;14.20;99.90;;;;;;5034718;28;20213;-74
2022/08/11 11:36:50;;;;;;;6.68;2.10;;;14.20;99.90;;;;;;5037807;28;20896;-70
2022/08/11 11:39:22;;;;;;;5.43;1.80;;;14.10;99.90;;;;;;5034239;28;20233;-71
2022/08/11 11:41:59;;;;;;;5.43;1.95;;;14.10;99.90;;;;;;5032326;28;20564;-75
2022/08/11 11:44:30;;;;;;;3.03;1.88;;;14.10;99.90;;;;;;5014904;28;20202;-71
2022/08/11 11:47:02;;;;;;;4.20;1.70;;;14.10;99.90;;;;;;5030273;28;20213;-75
2022/08/11 11:49:38;;;;;;;3.22;1.80;;;14.10;99.90;;;;;;5034878;28;20195;-74
2022/08/11 11:52:10;;;;;;;3.05;1.73;;;14.00;99.90;;;;;;5032150;28;20209;-76
2022/08/11 11:54:43;;;;;;;4.72;1.95;;;14.10;99.90;;;;;;5033932;28;20248;-74
2022/08/11 12:02:56;;;;;;;2.90;1.80;;;14.10;99.90;;;;;;5024837;28;20193;-76
2022/08/11 12:05:28;;;;;;;3.45;2.20;;;14.10;99.90;;;;;;5033296;28;20187;-76
2022/08/11 12:08:13;;;;;;;3.10;2.03;;;14.10;99.90;;;;;;5032126;28;20194;-76
2022/08/11 12:10:48;;;;;;;5.15;2.30;;;14.10;99.90;;;;;;5033377;28;20213;-76
2022/08/11 12:16:09;;;;;;;7.05;1.85;;;14.10;99.90;;;;;;5034398;28;20273;-76
2022/08/11 12:18:41;;;;;;;3.80;2.13;;;14.10;99.90;;;;;;5034119;28;20201;-77
2022/08/11 12:21:13;;;;;;;7.30;2.10;;;14.20;99.90;;;;;;5034233;28;20208;-74
2022/08/11 12:29:26;;;;;;;2.67;1.88;;;14.10;99.90;;;;;;5033393;28;20563;-75
2022/08/11 12:31:59;;;;;;;2.70;1.75;;;14.20;99.90;;;;;;5045804;28;20225;-75
2022/08/11 12:34:30;;;;;;;3.70;1.80;;;14.10;99.90;;;;;;5051910;28;20196;-76
2022/08/11 12:37:04;;;;;;;3.50;1.88;;;14.10;99.90;;;;;;5044717;28;20218;-75
2022/08/11 12:45:29;;;;;;;2.83;1.65;;;14.10;99.90;;;;;;5041567;28;20675;-76
2022/08/11 12:53:54;;;;;;;4.28;2.22;;;14.00;99.90;;;;;;5049397;28;20201;-75
2022/08/11 13:04:58;;;;;;;5.00;2.10;;;13.90;99.90;;;;;;5043367;28;20574;-75
2022/08/11 13:07:30;;;;;;;1.95;1.73;;;13.90;99.90;;;;;;5044774;28;20197;-74
2022/08/11 13:10:02;;;;;;;3.85;2.00;;;13.90;99.90;;;;;;5047070;28;20278;-75
2022/08/11 13:12:47;;;;;;;2.72;1.92;;;13.90;99.90;;;;;;5032298;28;20228;-75
2022/08/11 13:15:19;;;;;;;4.00;2.00;;;13.90;99.90;;;;;;5032306;28;20206;-73
2022/08/11 13:17:52;;;;;;;3.53;1.77;;;13.80;99.90;;;;;;5034502;28;20202;-73
2022/08/11 13:20:25;;;;;;;4.85;2.00;;;13.80;99.90;;;;;;5039536;28;20202;-76
2022/08/11 13:22:59;;;;;;;3.63;1.80;;;13.80;99.90;;;;;;5043781;28;20201;-75
2022/08/11 13:25:33;;;;;;;2.10;1.90;;;13.80;99.90;;;;;;5044110;28;20197;-75
2022/08/11 13:28:11;;;;;;;3.67;2.08;;;13.80;99.90;;;;;;5037447;28;20204;-76
2022/08/11 13:33:32;;;;;;;3.30;2.20;;;13.80;99.90;;;;;;5048846;28;20208;-76
2022/08/11 13:36:03;;;;;;;3.97;2.17;;;13.80;99.90;;;;;;5039583;28;20248;-74
2022/08/11 13:38:35;;;;;;;6.28;2.00;;;13.80;99.90;;;;;;5039513;28;20249;-76
2022/08/11 13:41:36;;;;;;;2.65;2.00;;;13.80;99.90;;;;;;5023620;28;20624;-74
2022/08/11 13:43:58;;;;;;;4.80;2.50;;;13.90;99.90;;;;;;5035320;28;20198;-75
2022/08/11 13:46:30;;;;;;;5.47;2.50;;;13.90;99.90;;;;;;5040741;28;20198;-76
2022/08/11 13:49:04;;;;;;;4.78;2.20;;;13.80;99.90;;;;;;5017656;28;20202;-76
2022/08/11 13:51:36;;;;;;;4.40;2.30;;;13.90;99.90;;;;;;5037241;28;20205;-76
2022/08/11 13:54:09;;;;;;;3.70;2.20;;;13.80;99.90;;;;;;5032754;28;20240;-75
2022/08/11 13:56:43;;;;;;;3.50;2.40;;;13.80;99.90;;;;;;5026012;28;20210;-74
2022/08/11 13:59:19;;;;;;;5.50;2.30;;;13.80;99.90;;;;;;5035298;28;20209;-76
2022/08/11 14:01:54;;;;;;;4.53;2.20;;;13.80;99.90;;;;;;5024603;28;20313;-73
2022/08/11 14:04:32;;;;;;;4.25;2.10;;;13.80;99.90;;;;;;5029273;28;20209;-75
2022/08/11 14:07:07;;;;;;;4.60;2.30;;;13.80;99.90;;;;;;5039691;28;20672;-76
2022/08/11 14:09:41;;;;;;;4.40;2.08;;;13.80;99.90;;;;;;5052559;28;20660;-75
2022/08/11 14:15:09;;;;;;;3.47;1.98;;;13.80;99.90;;;;;;5019584;28;20295;-76
2022/08/11 14:17:42;;;;;;;3.80;1.92;;;13.80;99.90;;;;;;5039450;28;20197;-76
2022/08/11 14:20:19;;;;;;;4.53;2.13;;;13.80;99.90;;;;;;5052082;28;20224;-76
2022/08/11 14:22:49;;;;;;;3.92;2.00;;;13.80;99.90;;;;;;5042693;28;20201;-76
2022/08/11 14:25:20;;;;;;;3.45;2.10;;;13.80;99.90;;;;;;5031605;28;20197;-76
2022/08/11 14:27:51;;;;;;;3.85;2.00;;;13.80;99.90;;;;;;5032284;28;20202;-76
2022/08/11 14:33:08;;;;;;;2.65;2.15;;;13.80;99.90;;;;;;5037106;28;20331;-76
2022/08/11 14:35:41;;;;;;;3.97;2.13;;;13.80;99.90;;;;;;5048158;28;20700;-76
2022/08/11 14:38:13;;;;;;;5.05;2.33;;;13.80;99.90;;;;;;5035270;28;20703;-75
2022/08/11 14:49:22;;;;;;;3.72;2.00;;;13.80;99.90;;;;;;5006670;28;20274;-75
2022/08/11 14:51:56;;;;;;;4.75;2.30;;;13.80;99.90;;;;;;5023907;28;20226;-75
2022/08/11 14:57:17;;;;;;;6.15;2.05;;;13.70;99.90;;;;;;5034746;28;20213;-76
2022/08/11 14:59:50;;;;;;;4.03;2.00;;;13.70;99.90;;;;;;5039101;28;20220;-75
2022/08/11 15:05:09;;;;;;;2.80;1.80;;;13.70;99.90;;;;;;5041721;28;20295;-74
2022/08/11 15:07:43;;;;;;;5.03;2.10;;;13.70;99.90;;;;;;5050453;28;20221;-76
2022/08/11 15:10:14;;;;;;;4.35;2.10;;;13.70;99.90;;;;;;5051185;28;20194;-76
2022/08/11 15:12:45;;;;;;;3.20;1.65;;;13.70;99.90;;;;;;5037746;28;20578;-76
2022/08/11 15:18:05;;;;;;;2.78;2.00;;;13.70;99.90;;;;;;5045101;28;20275;-76
2022/08/11 15:26:14;;;;;;;3.10;1.90;;;13.80;99.90;;;;;;5034312;28;20205;-76
2022/08/11 15:37:30;;;;;;;2.45;1.80;;;13.80;99.90;;;;;;5026767;28;20222;-76
2022/08/11 15:45:52;;;;;;;3.08;1.90;;;13.80;99.90;;;;;;5034089;28;20692;-76
2022/08/11 15:48:47;;;;;;;2.90;2.08;;;13.80;99.90;;;;;;5038051;28;20208;-76
2022/08/11 15:51:23;;;;;;;2.55;1.80;;;13.80;99.90;;;;;;5035219;28;20230;-74
2022/08/11 15:53:57;;;;;;;3.97;1.70;;;13.70;99.90;;;;;;5038411;28;20209;-76
2022/08/11 15:56:31;;;;;;;4.68;2.00;;;13.70;99.90;;;;;;5032943;28;20210;-77
2022/08/11 16:04:41;;;;;;;4.95;2.20;;;13.70;99.90;;;;;;5036779;28;20224;-75
2022/08/11 16:07:14;;;;;;;3.20;2.10;;;13.60;99.90;;;;;;5033668;28;20204;-74
2022/08/11 16:09:46;;;;;;;2.47;1.92;;;13.50;99.90;;;;;;5045277;28;20201;-74
2022/08/11 16:12:22;;;;;;;3.60;2.20;;;13.50;99.90;;;;;;5024188;28;20349;-71
2022/08/11 16:17:46;;;;;;;5.43;2.40;;;13.40;99.90;;;;;;5024532;28;20249;-72
2022/08/11 16:20:22;;;;;;;3.78;2.40;;;13.50;99.90;;;;;;5030420;28;20657;-74
2022/08/11 16:22:55;;;;;;;3.80;2.30;;;13.40;99.90;;;;;;5033980;28;20230;-75
2022/08/11 16:25:28;;;;;;;4.72;2.30;;;13.40;99.90;;;;;;5028950;28;20190;-76
2022/08/11 16:28:03;;;;;;;4.63;2.40;;;13.40;99.90;;;;;;5033142;28;20204;-76
2022/08/11 16:30:36;;;;;;;3.30;2.30;;;13.40;99.90;;;;;;5030231;28;20202;-75
2022/08/11 16:33:08;;;;;;;9.50;2.47;;;13.40;99.90;;;;;;5032020;28;20224;-76
2022/08/11 16:38:36;;;;;;;4.13;2.42;;;13.30;99.90;;;;;;5031414;28;20241;-76
2022/08/11 16:41:11;;;;;;;4.78;2.22;;;13.30;99.90;;;;;;5031247;28;20209;-76
2022/08/11 16:49:27;;;;;;;4.35;2.20;;;13.20;99.90;;;;;;5018727;28;20202;-76
2022/08/11 16:52:02;;;;;;;5.45;2.35;;;13.20;99.90;;;;;;5022922;28;20218;-75
2022/08/11 16:54:33;;;;;;;4.55;2.40;;;13.20;99.90;;;;;;5027620;28;20205;-75
2022/08/11 16:59:55;;;;;;;4.72;2.45;;;13.20;99.90;;;;;;5035127;28;20211;-76
2022/08/11 17:13:49;;;;;;;4.60;2.30;;;13.20;99.90;;;;;;5029510;28;20204;-77
2022/08/11 17:16:25;;;;;;;3.53;2.42;;;13.20;99.90;;;;;;5035047;28;20203;-78
2022/08/11 17:19:01;;;;;;;3.85;2.40;;;13.20;99.90;;;;;;5025192;28;20194;-77
2022/08/11 17:21:34;;;;;;;4.28;2.05;;;13.20;99.90;;;;;;5036599;28;20203;-77
2022/08/11 17:24:07;;;;;;;4.45;2.40;;;13.20;99.90;;;;;;5034243;28;20649;-76
2022/08/11 17:26:57;;;;;;;3.30;2.25;;;13.20;99.90;;;;;;5026263;28;20198;-76
2022/08/11 17:29:32;;;;;;;3.63;2.67;;;13.20;99.90;;;;;;5028323;28;20203;-77
2022/08/11 17:37:42;;;;;;;3.38;2.10;;;13.20;99.90;;;;;;5029581;28;20699;-76
2022/08/11 17:40:14;;;;;;;2.95;2.22;;;13.10;99.90;;;;;;5029148;28;20616;-76
2022/08/11 17:48:29;;;;;;;3.38;2.13;;;13.20;99.90;;;;;;5034869;28;20890;-76
2022/08/11 17:51:01;;;;;;;5.55;2.15;;;13.10;99.90;;;;;;5030414;28;20204;-76
2022/08/11 18:03:28;;;;;;;5.15;2.05;;;13.20;99.90;;;;;;5038829;28;20220;-74
2022/08/11 18:04:54;;;;;;;3.50;2.30;;;13.10;99.90;;;;;;5020888;28;20198;-74
